Aviation Digital Data Service (ADDS)

Output produced by METARs form (0949 UTC 25 February 2018)
found at http://aviationweather.gov/adds/metars/
 
KDAN 250520Z 2506/2606 20008KT P6SM SCT250 
     TEMPO 2506/2510 OVC050 
     FM251500 22010G18KT P6SM VCSH OVC070 
     FM251800 22010KT P6SM OVC050 
     FM252300 23007KT P6SM OVC100